• Join FlightAware (Why Join?)
  • Login
  • US Flag 
12:02PM EDT


 

Airport Tracker/Info


-or-


 

Live Flight TrackerFlight Track Log ✈ DLH925 ✈ 06-Jul-2013 ✈ EGLL / LHR - EDDF / FRA

Flight Track Log - Related Links

Times and Time Zones

All times are in EDT time to prevent confusion due to time zone crossing. See the DLH925 flight status page for this flight to view local times or setup timezone preferences in your user account.

Time Position Orientation Groundspeed Altitude Reporting Facility
EDT Latitude Longitude Course Direction KTS MPH feet Rate Location/Type
04:05AM 51.4244 -0.0210 101° East  Level Estimated
04:06AM 51.4064 0.1255 101° East  Level Estimated
04:07AM 51.3881 0.2720 101° East  Level Estimated
04:08AM 51.3697 0.4183 101° East  Level Estimated
04:09AM 51.3511 0.5645 101° East  Level Estimated
04:10AM 51.3323 0.7106 102° East  Level Estimated
04:11AM 51.3134 0.8566 102° East  Level Estimated
04:12AM 51.2942 1.0024 102° East  Level Estimated
04:13AM 51.2749 1.1482 102° East  Level Estimated
04:14AM 51.2554 1.2938 102° East  Level Estimated
04:15AM 51.2357 1.4392 102° East  Level Estimated
04:16AM 51.2158 1.5846 102° East  Level Estimated
04:17AM 51.1958 1.7298 102° East  Level Estimated
04:18AM 51.1755 1.8749 102° East  Level Estimated
04:19AM 51.1551 2.0199 103° East  Level Estimated
04:20AM 51.1345 2.1647 103° East  Level Estimated
04:21AM 51.1138 2.3094 103° East  Level Estimated
04:22AM 51.0928 2.4540 103° East  Level Estimated
04:23AM 51.0717 2.5985 103° East  Level Estimated
04:24AM 51.0504 2.7428 103° East  Level Estimated
04:25AM 51.0289 2.8870 103° East  Level Estimated
04:26AM 51.0073 3.0310 103° East  Level Estimated
04:27AM 50.9855 3.1750 103° East  Level Estimated
04:28AM 50.9635 3.3187 104° East  Level Estimated
04:29AM 50.9413 3.4624 104° East  Level Estimated
04:30AM 50.9189 3.6059 104° East  Level Estimated
04:31AM 50.8964 3.7493 104° East  Level Estimated
04:32AM 50.8737 3.8925 104° East  Level Estimated
04:33AM 50.8508 4.0356 104° East  Level Estimated
04:34AM 50.8277 4.1785 104° East  Level Estimated
04:35AM 50.8045 4.3214 104° East  Level Estimated
04:36AM 50.7811 4.4640 104° East  Level Estimated
04:37AM 50.7575 4.6065 105° East  Level Estimated
04:38AM 50.7337 4.7489 105° East  Level Estimated
04:39AM 50.7098 4.8911 105° East  Level Estimated
04:40AM 50.6857 5.0332 105° East  Level Estimated
04:41AM 50.6614 5.1752 105° East  Level Estimated
04:42AM 50.6370 5.3170 105° East  Level Estimated
04:43AM 50.6123 5.4586 105° East  Level Estimated
04:44AM 50.5876 5.6001 105° East  Level Estimated
04:45AM 50.5626 5.7415 105° East  Level Estimated
04:46AM 50.5375 5.8827 106° East  Level Estimated
04:47AM 50.5122 6.0237 106° East  Level Estimated
04:48AM 50.4867 6.1646 106° East  Level Estimated
04:49AM 50.4610 6.3053 106° East  Level Estimated
04:50AM 50.4352 6.4459 106° East  Level Estimated
04:51AM 50.4092 6.5864 106° East  Level Estimated
04:52AM 50.3831 6.7267 106° East  Level Estimated
04:53AM 50.3568 6.8668 106° East  Level Estimated
04:54AM 50.3303 7.0068 106° East  Level Estimated
04:55AM 50.3036 7.1466 107° East  Level Estimated
04:56AM 50.2768 7.2862 107° East  Level Estimated
04:57AM 50.2498 7.4257 107° East  Level Estimated
04:58AM 50.2226 7.5651 107° East  Level Estimated
04:59AM 50.1953 7.7042 107° East  Level Estimated
05:00AM 50.1678 7.8433 107° East  Level Estimated
05:01AM 50.1402 7.9821 107° East  Level Estimated
05:02AM 50.1124 8.1208 107° East  Level Estimated
05:03AM 50.0844 8.2594 107° East  Level Estimated
05:04AM 50.0562 8.3977 108° East  Level Estimated
05:05AM 50.0279 8.5360 108° East  Level Estimated
05:06AM 50.0264 8.5431 108° East  Level Estimated
05:07AM 50.0264 8.5431 73° East  Level Estimated
05:08AM 50.0264 8.5431 73° East  Level Estimated
05:09AM 50.0264 8.5431 73° East  Level Estimated
05:10AM 50.0264 8.5431 73° East  Level Estimated
05:11AM 50.0264 8.5431 73° East  Level Estimated
05:12AM 50.0264 8.5431 73° East  Level Estimated
05:13AM 50.0264 8.5431 73° East  Level Estimated
05:14AM 50.0264 8.5431 73° East  Level Estimated
05:15AM 50.0264 8.5431 73° East  Level Estimated